Terminal Aerodrome Forecast
Issued by NWS Glasgow, MT

Home | Current Version | Previous Version | Text Only | Print | Product List | Glossary On
Versions: 1 2 3 4 5 6 7 8 9 10 11 12 13 14 15 16 17
805
FTUS45 KGGW 221140
TAFGGW
TAF
KGGW 221140Z 2212/2312 02008KT 3SM -SN SCT007 OVC020
     FM221400 02007KT 4SM -SN SCT010 OVC015
     FM222000 06006KT P6SM SCT019 OVC020
     FM230600 10006KT P6SM OVC040=

USA.gov is the U.S. government's official web portal to all federal, state and local government web resources and services.